sensor_id;sensor_type;location;lat;lon;timestamp;temperature;humidity
23311;DHT22;11828;51.508;18.118;2023-07-22T00:01:54;34.90;32.40
23311;DHT22;11828;51.508;18.118;2023-07-22T00:04:20;34.80;32.60
23311;DHT22;11828;51.508;18.118;2023-07-22T00:06:46;34.80;32.70
23311;DHT22;11828;51.508;18.118;2023-07-22T00:09:13;34.80;32.80
23311;DHT22;11828;51.508;18.118;2023-07-22T00:11:39;34.90;33.00
23311;DHT22;11828;51.508;18.118;2023-07-22T00:14:06;34.90;33.80
23311;DHT22;11828;51.508;18.118;2023-07-22T00:16:32;35.00;34.00
23311;DHT22;11828;51.508;18.118;2023-07-22T00:18:59;35.00;34.10
23311;DHT22;11828;51.508;18.118;2023-07-22T00:21:25;35.00;33.60
23311;DHT22;11828;51.508;18.118;2023-07-22T00:23:51;35.00;34.20
23311;DHT22;11828;51.508;18.118;2023-07-22T00:26:17;35.00;34.60
23311;DHT22;11828;51.508;18.118;2023-07-22T00:28:43;35.00;34.40
23311;DHT22;11828;51.508;18.118;2023-07-22T00:31:10;35.00;34.50
23311;DHT22;11828;51.508;18.118;2023-07-22T00:33:37;35.00;34.60
23311;DHT22;11828;51.508;18.118;2023-07-22T00:36:22;35.00;34.40
23311;DHT22;11828;51.508;18.118;2023-07-22T00:38:48;35.00;34.60
23311;DHT22;11828;51.508;18.118;2023-07-22T00:41:14;35.00;34.40
23311;DHT22;11828;51.508;18.118;2023-07-22T00:43:40;34.90;34.60
23311;DHT22;11828;51.508;18.118;2023-07-22T00:46:06;34.90;34.40
23311;DHT22;11828;51.508;18.118;2023-07-22T00:48:33;34.90;34.40
23311;DHT22;11828;51.508;18.118;2023-07-22T00:50:59;34.80;34.60
23311;DHT22;11828;51.508;18.118;2023-07-22T00:53:25;34.80;35.00
23311;DHT22;11828;51.508;18.118;2023-07-22T00:55:52;34.70;35.00
23311;DHT22;11828;51.508;18.118;2023-07-22T00:58:20;34.80;34.90
23311;DHT22;11828;51.508;18.118;2023-07-22T01:00:47;34.70;34.90
23311;DHT22;11828;51.508;18.118;2023-07-22T01:03:14;34.70;34.80
23311;DHT22;11828;51.508;18.118;2023-07-22T01:05:40;34.70;34.70
23311;DHT22;11828;51.508;18.118;2023-07-22T01:08:07;34.70;34.70
23311;DHT22;11828;51.508;18.118;2023-07-22T01:10:33;34.60;34.40
23311;DHT22;11828;51.508;18.118;2023-07-22T01:13:00;34.70;34.70
23311;DHT22;11828;51.508;18.118;2023-07-22T01:15:45;34.70;34.80
23311;DHT22;11828;51.508;18.118;2023-07-22T01:18:11;34.70;34.70
23311;DHT22;11828;51.508;18.118;2023-07-22T01:20:38;34.70;34.40
23311;DHT22;11828;51.508;18.118;2023-07-22T01:23:04;34.70;34.40
23311;DHT22;11828;51.508;18.118;2023-07-22T01:25:32;34.70;34.40
23311;DHT22;11828;51.508;18.118;2023-07-22T01:27:58;34.70;34.10
23311;DHT22;11828;51.508;18.118;2023-07-22T01:30:24;34.70;33.90
23311;DHT22;11828;51.508;18.118;2023-07-22T01:32:53;34.60;33.80
23311;DHT22;11828;51.508;18.118;2023-07-22T01:35:19;34.60;33.70
23311;DHT22;11828;51.508;18.118;2023-07-22T01:37:46;34.60;33.80
23311;DHT22;11828;51.508;18.118;2023-07-22T01:40:12;34.60;33.70
23311;DHT22;11828;51.508;18.118;2023-07-22T01:42:39;34.60;33.40
23311;DHT22;11828;51.508;18.118;2023-07-22T01:45:07;34.60;33.40
23311;DHT22;11828;51.508;18.118;2023-07-22T01:47:34;34.50;33.30
23311;DHT22;11828;51.508;18.118;2023-07-22T01:50:04;34.50;33.30
23311;DHT22;11828;51.508;18.118;2023-07-22T01:52:34;34.50;33.20
23311;DHT22;11828;51.508;18.118;2023-07-22T01:55:00;34.50;33.00
23311;DHT22;11828;51.508;18.118;2023-07-22T01:57:27;34.50;33.70
23311;DHT22;11828;51.508;18.118;2023-07-22T01:59:52;34.50;32.90
23311;DHT22;11828;51.508;18.118;2023-07-22T02:02:19;34.50;33.00
23311;DHT22;11828;51.508;18.118;2023-07-22T02:04:45;34.40;33.00
23311;DHT22;11828;51.508;18.118;2023-07-22T02:07:12;34.30;33.00
23311;DHT22;11828;51.508;18.118;2023-07-22T02:09:38;34.30;33.00
23311;DHT22;11828;51.508;18.118;2023-07-22T02:12:04;34.30;33.00
23311;DHT22;11828;51.508;18.118;2023-07-22T02:14:33;34.30;32.90
23311;DHT22;11828;51.508;18.118;2023-07-22T02:16:59;34.30;32.90
23311;DHT22;11828;51.508;18.118;2023-07-22T02:19:26;34.30;33.10
23311;DHT22;11828;51.508;18.118;2023-07-22T02:21:53;34.40;33.10
23311;DHT22;11828;51.508;18.118;2023-07-22T02:24:18;34.40;32.80
23311;DHT22;11828;51.508;18.118;2023-07-22T02:26:45;34.40;32.70
23311;DHT22;11828;51.508;18.118;2023-07-22T02:29:11;34.30;32.60
23311;DHT22;11828;51.508;18.118;2023-07-22T02:31:38;34.30;32.80
23311;DHT22;11828;51.508;18.118;2023-07-22T02:34:05;34.20;32.70
23311;DHT22;11828;51.508;18.118;2023-07-22T02:36:31;34.20;32.70
23311;DHT22;11828;51.508;18.118;2023-07-22T02:38:57;34.10;32.70
23311;DHT22;11828;51.508;18.118;2023-07-22T02:41:23;34.10;32.90
23311;DHT22;11828;51.508;18.118;2023-07-22T02:43:49;34.00;32.80
23311;DHT22;11828;51.508;18.118;2023-07-22T02:46:16;33.90;32.70
23311;DHT22;11828;51.508;18.118;2023-07-22T02:48:42;33.90;32.90
23311;DHT22;11828;51.508;18.118;2023-07-22T02:51:09;33.80;32.80
23311;DHT22;11828;51.508;18.118;2023-07-22T02:53:36;33.80;32.90
23311;DHT22;11828;51.508;18.118;2023-07-22T02:56:03;33.80;33.00
23311;DHT22;11828;51.508;18.118;2023-07-22T02:58:30;33.80;32.90
23311;DHT22;11828;51.508;18.118;2023-07-22T03:00:56;33.80;33.00
23311;DHT22;11828;51.508;18.118;2023-07-22T03:03:25;33.80;33.00
23311;DHT22;11828;51.508;18.118;2023-07-22T03:05:52;33.80;32.90
23311;DHT22;11828;51.508;18.118;2023-07-22T03:08:18;33.80;33.00
23311;DHT22;11828;51.508;18.118;2023-07-22T03:10:44;33.70;33.10
23311;DHT22;11828;51.508;18.118;2023-07-22T03:13:17;33.60;33.10
23311;DHT22;11828;51.508;18.118;2023-07-22T03:15:44;33.60;33.20
23311;DHT22;11828;51.508;18.118;2023-07-22T03:18:10;33.60;33.30
23311;DHT22;11828;51.508;18.118;2023-07-22T03:20:37;33.60;33.30
23311;DHT22;11828;51.508;18.118;2023-07-22T03:23:04;33.60;33.30
23311;DHT22;11828;51.508;18.118;2023-07-22T03:25:32;33.60;33.40
23311;DHT22;11828;51.508;18.118;2023-07-22T03:28:06;33.60;33.40
23311;DHT22;11828;51.508;18.118;2023-07-22T03:30:33;33.50;33.50
23311;DHT22;11828;51.508;18.118;2023-07-22T03:32:59;33.60;33.60
23311;DHT22;11828;51.508;18.118;2023-07-22T03:35:26;33.60;33.50
23311;DHT22;11828;51.508;18.118;2023-07-22T03:37:54;33.50;33.40
23311;DHT22;11828;51.508;18.118;2023-07-22T03:40:21;33.50;33.50
23311;DHT22;11828;51.508;18.118;2023-07-22T03:42:53;33.60;33.60
23311;DHT22;11828;51.508;18.118;2023-07-22T03:45:21;33.50;33.50
23311;DHT22;11828;51.508;18.118;2023-07-22T03:47:51;33.50;33.50
23311;DHT22;11828;51.508;18.118;2023-07-22T03:50:18;33.40;33.50
23311;DHT22;11828;51.508;18.118;2023-07-22T03:52:44;33.40;33.60
23311;DHT22;11828;51.508;18.118;2023-07-22T03:55:11;33.50;33.60
23311;DHT22;11828;51.508;18.118;2023-07-22T03:57:56;33.50;33.60
23311;DHT22;11828;51.508;18.118;2023-07-22T04:00:22;33.60;33.50
23311;DHT22;11828;51.508;18.118;2023-07-22T04:02:48;33.60;33.50
23311;DHT22;11828;51.508;18.118;2023-07-22T04:05:15;33.60;33.50
23311;DHT22;11828;51.508;18.118;2023-07-22T04:07:41;33.60;33.50
23311;DHT22;11828;51.508;18.118;2023-07-22T04:10:08;33.60;33.50
23311;DHT22;11828;51.508;18.118;2023-07-22T04:12:34;33.60;33.50
23311;DHT22;11828;51.508;18.118;2023-07-22T04:15:01;33.60;33.40
23311;DHT22;11828;51.508;18.118;2023-07-22T04:17:27;33.70;33.40
23311;DHT22;11828;51.508;18.118;2023-07-22T04:19:53;33.70;33.50
23311;DHT22;11828;51.508;18.118;2023-07-22T04:22:20;33.70;33.40
23311;DHT22;11828;51.508;18.118;2023-07-22T04:24:47;33.70;33.50
23311;DHT22;11828;51.508;18.118;2023-07-22T04:27:16;33.70;33.50
23311;DHT22;11828;51.508;18.118;2023-07-22T04:29:43;33.80;33.50
23311;DHT22;11828;51.508;18.118;2023-07-22T04:32:09;33.80;33.40
23311;DHT22;11828;51.508;18.118;2023-07-22T04:34:35;33.80;33.30
23311;DHT22;11828;51.508;18.118;2023-07-22T04:37:01;33.80;33.40
23311;DHT22;11828;51.508;18.118;2023-07-22T04:39:27;33.70;33.20
23311;DHT22;11828;51.508;18.118;2023-07-22T04:41:53;33.70;33.40
23311;DHT22;11828;51.508;18.118;2023-07-22T04:44:20;33.60;33.50
23311;DHT22;11828;51.508;18.118;2023-07-22T04:46:46;33.60;33.70
23311;DHT22;11828;51.508;18.118;2023-07-22T04:49:12;33.50;33.70
23311;DHT22;11828;51.508;18.118;2023-07-22T04:51:39;33.50;33.80
23311;DHT22;11828;51.508;18.118;2023-07-22T04:54:05;33.50;33.90
23311;DHT22;11828;51.508;18.118;2023-07-22T04:56:31;33.50;33.80
23311;DHT22;11828;51.508;18.118;2023-07-22T04:58:58;33.50;33.90
23311;DHT22;11828;51.508;18.118;2023-07-22T05:01:24;33.50;34.00
23311;DHT22;11828;51.508;18.118;2023-07-22T05:03:50;33.60;34.20
23311;DHT22;11828;51.508;18.118;2023-07-22T05:06:16;33.70;34.10
23311;DHT22;11828;51.508;18.118;2023-07-22T05:08:42;33.90;34.00
23311;DHT22;11828;51.508;18.118;2023-07-22T05:11:08;33.90;33.70
23311;DHT22;11828;51.508;18.118;2023-07-22T05:13:35;33.90;33.40
23311;DHT22;11828;51.508;18.118;2023-07-22T05:16:01;33.90;33.30
23311;DHT22;11828;51.508;18.118;2023-07-22T05:18:27;33.90;33.30
23311;DHT22;11828;51.508;18.118;2023-07-22T05:20:53;33.90;33.30
23311;DHT22;11828;51.508;18.118;2023-07-22T05:23:19;34.00;33.40
23311;DHT22;11828;51.508;18.118;2023-07-22T05:25:51;34.10;33.20
23311;DHT22;11828;51.508;18.118;2023-07-22T05:28:19;34.10;33.00
23311;DHT22;11828;51.508;18.118;2023-07-22T05:30:46;34.20;33.10
23311;DHT22;11828;51.508;18.118;2023-07-22T05:33:13;34.30;32.80
23311;DHT22;11828;51.508;18.118;2023-07-22T05:35:38;34.40;32.70
23311;DHT22;11828;51.508;18.118;2023-07-22T05:38:05;34.40;32.70
23311;DHT22;11828;51.508;18.118;2023-07-22T05:40:32;34.40;32.70
23311;DHT22;11828;51.508;18.118;2023-07-22T05:42:58;34.50;32.50
23311;DHT22;11828;51.508;18.118;2023-07-22T05:45:24;34.60;32.20
23311;DHT22;11828;51.508;18.118;2023-07-22T05:47:51;34.70;32.10
23311;DHT22;11828;51.508;18.118;2023-07-22T05:50:17;34.60;31.90
23311;DHT22;11828;51.508;18.118;2023-07-22T05:52:43;34.70;32.00
23311;DHT22;11828;51.508;18.118;2023-07-22T05:55:09;34.70;32.00
23311;DHT22;11828;51.508;18.118;2023-07-22T05:57:36;34.80;32.00
23311;DHT22;11828;51.508;18.118;2023-07-22T06:00:02;34.80;31.80
23311;DHT22;11828;51.508;18.118;2023-07-22T06:02:29;34.90;32.10
23311;DHT22;11828;51.508;18.118;2023-07-22T06:04:55;34.80;31.40
23311;DHT22;11828;51.508;18.118;2023-07-22T06:07:41;34.90;31.40
23311;DHT22;11828;51.508;18.118;2023-07-22T06:10:08;34.90;31.30
23311;DHT22;11828;51.508;18.118;2023-07-22T06:12:34;34.90;31.10
23311;DHT22;11828;51.508;18.118;2023-07-22T06:15:02;35.00;31.00
23311;DHT22;11828;51.508;18.118;2023-07-22T06:17:28;35.00;30.60
23311;DHT22;11828;51.508;18.118;2023-07-22T06:19:54;35.00;30.70
23311;DHT22;11828;51.508;18.118;2023-07-22T06:22:20;34.90;30.30
23311;DHT22;11828;51.508;18.118;2023-07-22T06:24:46;34.90;30.40
23311;DHT22;11828;51.508;18.118;2023-07-22T06:27:13;35.00;30.50
23311;DHT22;11828;51.508;18.118;2023-07-22T06:29:39;35.20;31.00
23311;DHT22;11828;51.508;18.118;2023-07-22T06:32:05;35.40;30.20
23311;DHT22;11828;51.508;18.118;2023-07-22T06:34:32;35.60;30.00
23311;DHT22;11828;51.508;18.118;2023-07-22T06:36:58;35.70;29.70
23311;DHT22;11828;51.508;18.118;2023-07-22T06:39:24;35.70;29.50
23311;DHT22;11828;51.508;18.118;2023-07-22T06:41:50;35.90;29.50
23311;DHT22;11828;51.508;18.118;2023-07-22T06:44:17;36.00;29.30
23311;DHT22;11828;51.508;18.118;2023-07-22T06:46:43;36.10;29.10
23311;DHT22;11828;51.508;18.118;2023-07-22T06:49:10;36.10;29.30
23311;DHT22;11828;51.508;18.118;2023-07-22T06:51:36;36.10;29.20
23311;DHT22;11828;51.508;18.118;2023-07-22T06:54:04;36.30;29.00
23311;DHT22;11828;51.508;18.118;2023-07-22T06:56:30;36.30;28.80
23311;DHT22;11828;51.508;18.118;2023-07-22T06:58:56;36.30;29.00
23311;DHT22;11828;51.508;18.118;2023-07-22T07:01:22;36.40;28.90
23311;DHT22;11828;51.508;18.118;2023-07-22T07:03:48;36.60;29.20
23311;DHT22;11828;51.508;18.118;2023-07-22T07:06:14;37.10;29.00
23311;DHT22;11828;51.508;18.118;2023-07-22T07:08:41;37.60;28.60
23311;DHT22;11828;51.508;18.118;2023-07-22T07:11:07;38.30;27.90
23311;DHT22;11828;51.508;18.118;2023-07-22T07:13:33;38.80;27.30
23311;DHT22;11828;51.508;18.118;2023-07-22T07:16:22;39.20;26.80
23311;DHT22;11828;51.508;18.118;2023-07-22T07:19:00;39.80;26.20
23311;DHT22;11828;51.508;18.118;2023-07-22T07:21:27;40.40;26.10
23311;DHT22;11828;51.508;18.118;2023-07-22T07:23:54;40.90;25.70
23311;DHT22;11828;51.508;18.118;2023-07-22T07:26:21;41.50;24.80
23311;DHT22;11828;51.508;18.118;2023-07-22T07:28:51;41.80;24.50
23311;DHT22;11828;51.508;18.118;2023-07-22T07:31:19;42.20;24.30
23311;DHT22;11828;51.508;18.118;2023-07-22T07:33:46;42.70;23.80
23311;DHT22;11828;51.508;18.118;2023-07-22T07:36:12;43.10;23.60
23311;DHT22;11828;51.508;18.118;2023-07-22T07:38:38;43.50;22.90
23311;DHT22;11828;51.508;18.118;2023-07-22T07:41:06;43.70;22.40
23311;DHT22;11828;51.508;18.118;2023-07-22T07:43:35;43.80;21.70
23311;DHT22;11828;51.508;18.118;2023-07-22T07:46:23;43.90;21.00
23311;DHT22;11828;51.508;18.118;2023-07-22T07:48:56;43.90;20.70
23311;DHT22;11828;51.508;18.118;2023-07-22T07:51:25;43.80;21.00
23311;DHT22;11828;51.508;18.118;2023-07-22T07:53:56;43.70;21.30
23311;DHT22;11828;51.508;18.118;2023-07-22T07:56:24;43.90;21.30
23311;DHT22;11828;51.508;18.118;2023-07-22T07:58:52;44.10;21.20
23311;DHT22;11828;51.508;18.118;2023-07-22T08:01:19;44.40;21.40
23311;DHT22;11828;51.508;18.118;2023-07-22T08:03:47;44.70;20.90
23311;DHT22;11828;51.508;18.118;2023-07-22T08:06:13;44.90;20.70
23311;DHT22;11828;51.508;18.118;2023-07-22T08:08:40;45.20;20.40
23311;DHT22;11828;51.508;18.118;2023-07-22T08:11:11;45.40;20.40
23311;DHT22;11828;51.508;18.118;2023-07-22T08:13:42;45.70;31.80
23311;DHT22;11828;51.508;18.118;2023-07-22T08:16:11;45.70;20.40
23311;DHT22;11828;51.508;18.118;2023-07-22T08:18:39;45.50;19.80
23311;DHT22;11828;51.508;18.118;2023-07-22T08:21:06;45.00;20.10
23311;DHT22;11828;51.508;18.118;2023-07-22T08:23:33;44.60;21.10
23311;DHT22;11828;51.508;18.118;2023-07-22T08:26:00;44.20;20.70
23311;DHT22;11828;51.508;18.118;2023-07-22T08:28:27;43.80;21.20
23311;DHT22;11828;51.508;18.118;2023-07-22T08:30:57;43.50;21.40
23311;DHT22;11828;51.508;18.118;2023-07-22T08:33:24;43.50;21.60
23311;DHT22;11828;51.508;18.118;2023-07-22T08:35:53;43.50;21.90
23311;DHT22;11828;51.508;18.118;2023-07-22T08:38:19;43.40;21.80
23311;DHT22;11828;51.508;18.118;2023-07-22T08:40:49;43.30;21.80
23311;DHT22;11828;51.508;18.118;2023-07-22T08:43:22;42.90;22.10
23311;DHT22;11828;51.508;18.118;2023-07-22T08:45:52;42.60;22.10
23311;DHT22;11828;51.508;18.118;2023-07-22T08:48:21;42.80;22.30
23311;DHT22;11828;51.508;18.118;2023-07-22T08:51:02;43.20;22.20
23311;DHT22;11828;51.508;18.118;2023-07-22T08:53:30;43.90;22.00
23311;DHT22;11828;51.508;18.118;2023-07-22T08:55:59;44.60;21.40
23311;DHT22;11828;51.508;18.118;2023-07-22T08:58:26;45.10;20.90
23311;DHT22;11828;51.508;18.118;2023-07-22T09:00:52;45.60;20.80
23311;DHT22;11828;51.508;18.118;2023-07-22T09:03:20;46.20;36.00
23311;DHT22;11828;51.508;18.118;2023-07-22T09:05:46;46.20;20.20
23311;DHT22;11828;51.508;18.118;2023-07-22T09:08:13;46.00;20.10
23311;DHT22;11828;51.508;18.118;2023-07-22T09:10:40;45.70;19.90
23311;DHT22;11828;51.508;18.118;2023-07-22T09:13:07;45.30;20.20
23311;DHT22;11828;51.508;18.118;2023-07-22T09:15:36;45.30;20.50
23311;DHT22;11828;51.508;18.118;2023-07-22T09:18:21;45.50;20.40
23311;DHT22;11828;51.508;18.118;2023-07-22T09:20:47;45.80;20.20
23311;DHT22;11828;51.508;18.118;2023-07-22T09:23:14;45.80;20.20
23311;DHT22;11828;51.508;18.118;2023-07-22T09:25:41;45.40;20.00
23311;DHT22;11828;51.508;18.118;2023-07-22T09:28:09;45.00;20.30
23311;DHT22;11828;51.508;18.118;2023-07-22T09:30:39;44.90;20.20
23311;DHT22;11828;51.508;18.118;2023-07-22T09:33:07;44.70;20.30
23311;DHT22;11828;51.508;18.118;2023-07-22T09:35:47;44.70;20.40
23311;DHT22;11828;51.508;18.118;2023-07-22T09:38:25;44.90;20.10
23311;DHT22;11828;51.508;18.118;2023-07-22T09:40:53;44.90;19.90
23311;DHT22;11828;51.508;18.118;2023-07-22T09:43:21;44.50;20.10
23311;DHT22;11828;51.508;18.118;2023-07-22T09:45:48;44.00;20.50
23311;DHT22;11828;51.508;18.118;2023-07-22T09:48:16;43.80;20.70
23311;DHT22;11828;51.508;18.118;2023-07-22T09:50:42;43.60;20.80
23311;DHT22;11828;51.508;18.118;2023-07-22T09:53:09;43.40;20.80
23311;DHT22;11828;51.508;18.118;2023-07-22T09:55:40;43.10;21.10
23311;DHT22;11828;51.508;18.118;2023-07-22T09:58:07;43.10;21.00
23311;DHT22;11828;51.508;18.118;2023-07-22T10:00:35;43.00;20.70
23311;DHT22;11828;51.508;18.118;2023-07-22T10:03:03;43.10;20.60
23311;DHT22;11828;51.508;18.118;2023-07-22T10:05:34;43.40;19.90
23311;DHT22;11828;51.508;18.118;2023-07-22T10:08:02;43.20;19.90
23311;DHT22;11828;51.508;18.118;2023-07-22T10:10:38;43.00;20.30
23311;DHT22;11828;51.508;18.118;2023-07-22T10:13:05;43.00;20.20
23311;DHT22;11828;51.508;18.118;2023-07-22T10:15:33;43.10;20.40
23311;DHT22;11828;51.508;18.118;2023-07-22T10:18:01;43.30;20.40
23311;DHT22;11828;51.508;18.118;2023-07-22T10:20:29;43.50;20.20
23311;DHT22;11828;51.508;18.118;2023-07-22T10:22:56;43.80;19.90
23311;DHT22;11828;51.508;18.118;2023-07-22T10:27:53;44.30;53.20
23311;DHT22;11828;51.508;18.118;2023-07-22T10:30:20;44.10;26.30
23311;DHT22;11828;51.508;18.118;2023-07-22T10:32:53;43.90;19.80
23311;DHT22;11828;51.508;18.118;2023-07-22T10:38:10;42.80;19.80
23311;DHT22;11828;51.508;18.118;2023-07-22T10:40:51;42.40;19.70
23311;DHT22;11828;51.508;18.118;2023-07-22T10:45:58;41.90;20.10
23311;DHT22;11828;51.508;18.118;2023-07-22T10:48:34;41.70;20.20
23311;DHT22;11828;51.508;18.118;2023-07-22T10:53:42;40.80;20.70
23311;DHT22;11828;51.508;18.118;2023-07-22T10:56:16;40.40;21.00
23311;DHT22;11828;51.508;18.118;2023-07-22T11:12:06;39.20;22.30
23311;DHT22;11828;51.508;18.118;2023-07-22T11:17:27;39.60;22.10
23311;DHT22;11828;51.508;18.118;2023-07-22T11:20:00;39.70;21.70
23311;DHT22;11828;51.508;18.118;2023-07-22T11:22:27;39.60;21.80
23311;DHT22;11828;51.508;18.118;2023-07-22T11:24:57;39.50;22.10
23311;DHT22;11828;51.508;18.118;2023-07-22T11:27:26;39.30;21.80
23311;DHT22;11828;51.508;18.118;2023-07-22T11:29:52;39.00;21.80
23311;DHT22;11828;51.508;18.118;2023-07-22T11:32:19;38.80;22.10
23311;DHT22;11828;51.508;18.118;2023-07-22T11:34:50;38.60;22.20
23311;DHT22;11828;51.508;18.118;2023-07-22T11:37:18;38.40;22.20
23311;DHT22;11828;51.508;18.118;2023-07-22T11:39:45;38.30;22.40
23311;DHT22;11828;51.508;18.118;2023-07-22T11:42:11;38.10;22.70
23311;DHT22;11828;51.508;18.118;2023-07-22T11:44:38;38.00;22.70
23311;DHT22;11828;51.508;18.118;2023-07-22T11:47:06;38.20;22.80
23311;DHT22;11828;51.508;18.118;2023-07-22T11:49:37;38.70;22.70
23311;DHT22;11828;51.508;18.118;2023-07-22T11:54:40;39.00;22.50
23311;DHT22;11828;51.508;18.118;2023-07-22T11:57:24;39.10;22.40
23311;DHT22;11828;51.508;18.118;2023-07-22T11:59:53;38.90;22.50
23311;DHT22;11828;51.508;18.118;2023-07-22T12:02:22;38.70;22.50
23311;DHT22;11828;51.508;18.118;2023-07-22T12:05:03;38.50;22.60
23311;DHT22;11828;51.508;18.118;2023-07-22T12:07:35;38.30;22.80
23311;DHT22;11828;51.508;18.118;2023-07-22T12:10:05;38.20;22.70
23311;DHT22;11828;51.508;18.118;2023-07-22T12:12:43;38.30;22.80
23311;DHT22;11828;51.508;18.118;2023-07-22T12:15:15;38.50;22.40
23311;DHT22;11828;51.508;18.118;2023-07-22T12:17:53;38.60;21.90
23311;DHT22;11828;51.508;18.118;2023-07-22T12:20:30;38.80;21.70
23311;DHT22;11828;51.508;18.118;2023-07-22T12:22:57;39.10;21.80
23311;DHT22;11828;51.508;18.118;2023-07-22T12:25:24;39.50;21.50
23311;DHT22;11828;51.508;18.118;2023-07-22T12:27:50;39.90;21.20
23311;DHT22;11828;51.508;18.118;2023-07-22T12:30:17;40.10;21.10
23311;DHT22;11828;51.508;18.118;2023-07-22T12:32:43;40.20;21.00
23311;DHT22;11828;51.508;18.118;2023-07-22T12:35:10;40.20;21.10
23311;DHT22;11828;51.508;18.118;2023-07-22T12:37:36;40.10;21.20
23311;DHT22;11828;51.508;18.118;2023-07-22T12:40:03;39.90;21.10
23311;DHT22;11828;51.508;18.118;2023-07-22T12:42:36;40.00;21.40
23311;DHT22;11828;51.508;18.118;2023-07-22T12:45:06;40.20;20.80
23311;DHT22;11828;51.508;18.118;2023-07-22T12:47:33;40.40;20.90
23311;DHT22;11828;51.508;18.118;2023-07-22T12:49:59;40.30;20.50
23311;DHT22;11828;51.508;18.118;2023-07-22T12:52:25;40.10;20.00
23311;DHT22;11828;51.508;18.118;2023-07-22T12:54:52;40.10;20.20
23311;DHT22;11828;51.508;18.118;2023-07-22T12:57:18;40.40;20.00
23311;DHT22;11828;51.508;18.118;2023-07-22T12:59:44;40.70;19.90
23311;DHT22;11828;51.508;18.118;2023-07-22T13:02:10;41.10;19.60
23311;DHT22;11828;51.508;18.118;2023-07-22T13:04:36;41.60;19.50
23311;DHT22;11828;51.508;18.118;2023-07-22T13:07:02;41.80;19.10
23311;DHT22;11828;51.508;18.118;2023-07-22T13:09:29;41.70;18.70
23311;DHT22;11828;51.508;18.118;2023-07-22T13:11:55;41.80;18.50
23311;DHT22;11828;51.508;18.118;2023-07-22T13:14:21;41.90;18.70
23311;DHT22;11828;51.508;18.118;2023-07-22T13:16:47;41.90;18.90
23311;DHT22;11828;51.508;18.118;2023-07-22T13:19:13;42.10;18.60
23311;DHT22;11828;51.508;18.118;2023-07-22T13:21:39;42.20;18.40
23311;DHT22;11828;51.508;18.118;2023-07-22T13:24:06;42.10;18.30
23311;DHT22;11828;51.508;18.118;2023-07-22T13:26:34;42.10;18.20
23311;DHT22;11828;51.508;18.118;2023-07-22T13:29:01;41.80;18.20
23311;DHT22;11828;51.508;18.118;2023-07-22T13:31:27;41.60;18.10
23311;DHT22;11828;51.508;18.118;2023-07-22T13:33:53;41.80;18.20
23311;DHT22;11828;51.508;18.118;2023-07-22T13:36:19;41.80;18.00
23311;DHT22;11828;51.508;18.118;2023-07-22T13:38:45;42.00;18.00
23311;DHT22;11828;51.508;18.118;2023-07-22T13:41:11;42.00;18.10
23311;DHT22;11828;51.508;18.118;2023-07-22T13:43:38;42.10;18.10
23311;DHT22;11828;51.508;18.118;2023-07-22T13:46:04;41.90;18.30
23311;DHT22;11828;51.508;18.118;2023-07-22T13:48:31;41.70;18.50
23311;DHT22;11828;51.508;18.118;2023-07-22T13:50:57;41.40;18.70
23311;DHT22;11828;51.508;18.118;2023-07-22T13:53:23;41.30;18.80
23311;DHT22;11828;51.508;18.118;2023-07-22T13:55:49;41.40;18.80
23311;DHT22;11828;51.508;18.118;2023-07-22T13:58:15;41.40;18.70
23311;DHT22;11828;51.508;18.118;2023-07-22T14:00:41;41.30;18.60
23311;DHT22;11828;51.508;18.118;2023-07-22T14:03:07;41.00;18.60
23311;DHT22;11828;51.508;18.118;2023-07-22T14:05:35;40.80;18.70
23311;DHT22;11828;51.508;18.118;2023-07-22T14:08:02;40.60;18.80
23311;DHT22;11828;51.508;18.118;2023-07-22T14:10:28;40.40;18.90
23311;DHT22;11828;51.508;18.118;2023-07-22T14:12:54;40.40;19.20
23311;DHT22;11828;51.508;18.118;2023-07-22T14:15:20;40.40;19.20
23311;DHT22;11828;51.508;18.118;2023-07-22T14:17:46;40.20;19.10
23311;DHT22;11828;51.508;18.118;2023-07-22T14:20:12;40.20;19.10
23311;DHT22;11828;51.508;18.118;2023-07-22T14:22:41;39.90;19.10
23311;DHT22;11828;51.508;18.118;2023-07-22T14:25:08;39.80;19.30
23311;DHT22;11828;51.508;18.118;2023-07-22T14:27:37;40.00;19.20
23311;DHT22;11828;51.508;18.118;2023-07-22T14:30:04;40.60;18.90
23311;DHT22;11828;51.508;18.118;2023-07-22T14:32:31;41.40;18.60
23311;DHT22;11828;51.508;18.118;2023-07-22T14:34:57;41.90;18.00
23311;DHT22;11828;51.508;18.118;2023-07-22T14:37:24;42.30;18.00
23311;DHT22;11828;51.508;18.118;2023-07-22T14:39:50;42.00;17.90
23311;DHT22;11828;51.508;18.118;2023-07-22T14:42:16;41.70;18.30
23311;DHT22;11828;51.508;18.118;2023-07-22T14:44:42;41.60;18.80
23311;DHT22;11828;51.508;18.118;2023-07-22T14:47:09;41.80;18.40
23311;DHT22;11828;51.508;18.118;2023-07-22T14:49:35;41.80;18.10
23311;DHT22;11828;51.508;18.118;2023-07-22T14:52:20;41.60;18.00
23311;DHT22;11828;51.508;18.118;2023-07-22T14:54:47;41.30;18.10
23311;DHT22;11828;51.508;18.118;2023-07-22T14:57:13;41.00;18.20
23311;DHT22;11828;51.508;18.118;2023-07-22T15:02:06;43.80;26.50
23311;DHT22;11828;51.508;18.118;2023-07-22T15:04:32;42.60;17.80
23311;DHT22;11828;51.508;18.118;2023-07-22T15:06:59;42.70;17.60
23311;DHT22;11828;51.508;18.118;2023-07-22T15:09:25;42.80;17.50
23311;DHT22;11828;51.508;18.118;2023-07-22T15:11:51;42.70;17.50
23311;DHT22;11828;51.508;18.118;2023-07-22T15:14:19;42.40;17.40
23311;DHT22;11828;51.508;18.118;2023-07-22T15:16:45;41.90;17.40
23311;DHT22;11828;51.508;18.118;2023-07-22T15:19:11;41.70;17.60
23311;DHT22;11828;51.508;18.118;2023-07-22T15:21:37;41.40;17.70
23311;DHT22;11828;51.508;18.118;2023-07-22T15:24:04;41.30;17.80
23311;DHT22;11828;51.508;18.118;2023-07-22T15:26:30;41.30;18.00
23311;DHT22;11828;51.508;18.118;2023-07-22T15:28:56;41.50;18.10
23311;DHT22;11828;51.508;18.118;2023-07-22T15:31:23;41.90;18.00
23311;DHT22;11828;51.508;18.118;2023-07-22T15:33:49;42.40;17.80
23311;DHT22;11828;51.508;18.118;2023-07-22T15:36:15;43.00;17.20
23311;DHT22;11828;51.508;18.118;2023-07-22T15:38:41;43.10;16.90
23311;DHT22;11828;51.508;18.118;2023-07-22T15:41:08;42.80;17.00
23311;DHT22;11828;51.508;18.118;2023-07-22T15:43:34;42.40;17.10
23311;DHT22;11828;51.508;18.118;2023-07-22T15:46:00;42.00;17.10
23311;DHT22;11828;51.508;18.118;2023-07-22T15:48:27;41.70;17.20
23311;DHT22;11828;51.508;18.118;2023-07-22T15:50:53;41.40;17.40